^^
Meteo Knjazevac Station Historical Data
Daily Summary for May 18, 2022 Units:  Metric    English   Both
Daily Weekly Monthly Yearly Custom
  High: Low: Average:
Temperature: 24.2 °C 7.1 °C 17.6 °C
Dew Point: 15.4 °C 4.9 °C 11.6 °C
Humidity: 90% 34% 70%
Wind Speed: 16.1km/h 0km/h 6.4km/h
Wind Gust: 33.8km/h - -
Wind- - WNW
Pressure: 1027.7 hPa 1016.8 hPa -
Precipitation: 0 mm    
Historical Graphs
 
 
Tabular Data for May 18, 2022
Time Temperature Dew Point Pressure Wind Wind Speed Wind Gust Humidity Rainfall Rate (Hourly) solar Conditions
00:00 18.3 °C 13.8 °C 1017.5 hPa SW 8 km/h 14.5 km/h 75% 0 mm 0 W/m2
00:10 18.2 °C 13.7 °C 1017.2 hPa WSW 3.2 km/h 14.5 km/h 75% 0 mm 0 W/m2
00:20 18.1 °C 13.8 °C 1017.2 hPa SW 4.8 km/h 9.7 km/h 76% 0 mm 0 W/m2
00:30 17.8 °C 13.9 °C 1017.2 hPa SW 9.7 km/h 17.7 km/h 78% 0 mm 0 W/m2
00:40 17.6 °C 14.1 °C 1017.2 hPa SW 12.9 km/h 19.3 km/h 80% 0 mm 0 W/m2
00:50 17.5 °C 14 °C 1017.5 hPa SW 8 km/h 14.5 km/h 80% 0 mm 0 W/m2
01:00 17.4 °C 14.1 °C 1017.5 hPa SSW 4.8 km/h 14.5 km/h 81% 0 mm 0 W/m2
01:10 17.3 °C 13.8 °C 1017.5 hPa SW 3.2 km/h 8 km/h 80% 0 mm 0 W/m2
01:20 17.3 °C 13.8 °C 1017.5 hPa SSW 3.2 km/h 8 km/h 80% 0 mm 0 W/m2
01:30 17.3 °C 13.8 °C 1017.5 hPa SW 3.2 km/h 8 km/h 80% 0 mm 0 W/m2
01:40 17.2 °C 13.9 °C 1017.2 hPa SW 9.7 km/h 14.5 km/h 81% 0 mm 0 W/m2
01:50 17.1 °C 13.8 °C 1017.2 hPa SW 8 km/h 16.1 km/h 81% 0 mm 0 W/m2
02:00 17.1 °C 14.2 °C 1017.2 hPa SW 8 km/h 12.9 km/h 83% 0 mm 0 W/m2
02:10 17.1 °C 14.2 °C 1017.2 hPa SW 8 km/h 12.9 km/h 83% 0 mm 0 W/m2
02:20 17.1 °C 14.2 °C 1017.2 hPa SW 4.8 km/h 12.9 km/h 83% 0 mm 0 W/m2
02:30 17.1 °C 14.2 °C 1017.2 hPa SW 1.6 km/h 8 km/h 83% 0 mm 0 W/m2
02:40 17.2 °C 14.3 °C 1017.2 hPa Calm   3.2 km/h 83% 0 mm 0 W/m2
02:50 17.2 °C 14.3 °C 1016.8 hPa SW 4.8 km/h 9.7 km/h 83% 0 mm 0 W/m2
03:00 17.2 °C 14.3 °C 1016.8 hPa SW 8 km/h 9.7 km/h 83% 0 mm 0 W/m2
03:10 17.2 °C 14.3 °C 1017.2 hPa SW 8 km/h 11.3 km/h 83% 0 mm 0 W/m2
03:20 17.2 °C 14.4 °C 1017.2 hPa SW 8 km/h 11.3 km/h 84% 0 mm 0 W/m2
03:30 17.2 °C 14.4 °C 1017.2 hPa SW 3.2 km/h 9.7 km/h 84% 0 mm 0 W/m2
03:40 17.2 °C 14.4 °C 1017.2 hPa SW 4.8 km/h 12.9 km/h 84% 0 mm 0 W/m2
03:50 17.2 °C 14.4 °C 1016.8 hPa SW 8 km/h 14.5 km/h 84% 0 mm 0 W/m2
04:00 17.2 °C 14.7 °C 1016.8 hPa SW 8 km/h 16.1 km/h 85% 0 mm 0 W/m2
04:10 17.2 °C 14.7 °C 1016.8 hPa SW 9.7 km/h 12.9 km/h 85% 0 mm 0 W/m2
04:20 17.2 °C 14.7 °C 1016.8 hPa WSW 8 km/h 11.3 km/h 85% 0 mm 0 W/m2
04:30 17.1 °C 14.6 °C 1016.8 hPa SW 11.3 km/h 14.5 km/h 85% 0 mm 0 W/m2
04:40 17.2 °C 14.7 °C 1016.8 hPa SW 9.7 km/h 16.1 km/h 85% 0 mm 0 W/m2
05:00 17.2 °C 14.7 °C 1017.2 hPa SW 8 km/h 9.7 km/h 85% 0 mm 0 W/m2
05:10 17.2 °C 15.2 °C 1017.2 hPa WSW 4.8 km/h 9.7 km/h 88% 0.25 mm 0 W/m2
05:20 17.1 °C 15.3 °C 1017.2 hPa SW 4.8 km/h 11.3 km/h 89% 0 mm 0 W/m2
05:30 17 °C 15.2 °C 1017.2 hPa SW 4.8 km/h 9.7 km/h 89% 0 mm 3 W/m2
05:40 16.9 °C 15.1 °C 1017.2 hPa SW 8 km/h 11.3 km/h 89% 0 mm 8 W/m2
05:50 16.9 °C 15.2 °C 1017.2 hPa WSW 4.8 km/h 11.3 km/h 90% 0 mm 14 W/m2
06:00 16.9 °C 15.2 °C 1017.5 hPa Calm   8 km/h 90% 0 mm 10 W/m2
06:10 16.9 °C 15.2 °C 1017.5 hPa West 1.6 km/h 4.8 km/h 90% 0 mm 8 W/m2
06:20 16.9 °C 15.2 °C 1017.5 hPa WSW 3.2 km/h 9.7 km/h 90% 0 mm 10 W/m2
06:30 17 °C 15.2 °C 1017.8 hPa WSW 1.6 km/h 9.7 km/h 89% 0 mm 11 W/m2
06:40 17.1 °C 15.2 °C 1017.8 hPa West 1.6 km/h 6.4 km/h 89% 0 mm 13 W/m2
06:50 17.1 °C 15.1 °C 1017.8 hPa Calm   6.4 km/h 88% 0 mm 18 W/m2
07:00 17.2 °C 15.4 °C 1017.8 hPa WSW 3.2 km/h 9.7 km/h 89% 0 mm 27 W/m2
07:10 17.3 °C 15.3 °C 1017.8 hPa NW 1.6 km/h 8 km/h 88% 0 mm 49 W/m2
07:20 17.4 °C 15.1 °C 1017.8 hPa NW 1.6 km/h 4.8 km/h 86% 0 mm 60 W/m2
07:30 17.5 °C 15.1 °C 1017.8 hPa West 3.2 km/h 9.7 km/h 86% 0 mm 54 W/m2
07:40 17.6 °C 15.2 °C 1017.8 hPa WSW 3.2 km/h 11.3 km/h 86% 0 mm 86 W/m2
07:50 17.7 °C 15.3 °C 1017.8 hPa WSW 8 km/h 12.9 km/h 86% 0 mm 109 W/m2
08:00 17.7 °C 15.2 °C 1018.2 hPa West 4.8 km/h 19.3 km/h 85% 0 mm 126 W/m2
08:10 17.9 °C 15.1 °C 1018.5 hPa WNW 8 km/h 11.3 km/h 84% 0 mm 116 W/m2
08:20 18 °C 15.1 °C 1018.5 hPa West 8 km/h 16.1 km/h 83% 0 mm 428 W/m2
08:30 18.6 °C 15.1 °C 1018.5 hPa West 11.3 km/h 22.5 km/h 80% 0 mm 493 W/m2
08:40 19.1 °C 15.3 °C 1018.8 hPa WNW 8 km/h 22.5 km/h 79% 0 mm 242 W/m2
08:50 19 °C 15.1 °C 1018.8 hPa West 8 km/h 17.7 km/h 78% 0 mm 247 W/m2
09:00 19 °C 14.9 °C 1018.8 hPa West 12.9 km/h 20.9 km/h 77% 0 mm 384 W/m2
09:20 19.6 °C 14.8 °C 1019.2 hPa West 11.3 km/h 19.3 km/h 74% 0 mm 373 W/m2
09:30 19.6 °C 14.4 °C 1019.2 hPa West 9.7 km/h 17.7 km/h 72% 0 mm 355 W/m2
09:40 19.7 °C 14.1 °C 1019.2 hPa NW 4.8 km/h 19.3 km/h 70% 0 mm 204 W/m2
09:50 19.9 °C 14.7 °C 1019.5 hPa NW 4.8 km/h 12.9 km/h 72% 0 mm 773 W/m2
10:00 20.9 °C 15 °C 1019.5 hPa NW 3.2 km/h 14.5 km/h 69% 0 mm 295 W/m2
10:10 21.1 °C 14.7 °C 1019.9 hPa NNW 11.3 km/h 22.5 km/h 67% 0 mm 210 W/m2
10:20 20.7 °C 13.4 °C 1019.9 hPa NNW 12.9 km/h 24.1 km/h 63% 0 mm 183 W/m2
10:30 20.4 °C 13.3 °C 1019.9 hPa NNW 9.7 km/h 24.1 km/h 64% 0 mm 191 W/m2
10:40 20.2 °C 12.9 °C 1019.9 hPa NNW 9.7 km/h 19.3 km/h 63% 0 mm 218 W/m2
10:50 20.6 °C 13.1 °C 1019.9 hPa NW 9.7 km/h 27.4 km/h 62% 0 mm 882 W/m2
11:00 20.8 °C 12.5 °C 1020.2 hPa NNW 12.9 km/h 27.4 km/h 59% 0 mm 252 W/m2
11:10 20.6 °C 12.6 °C 1020.2 hPa NNW 9.7 km/h 27.4 km/h 60% 0 mm 277 W/m2
11:20 20.6 °C 12.3 °C 1020.2 hPa NNW 12.9 km/h 22.5 km/h 59% 0 mm 267 W/m2
11:30 20.7 °C 11.3 °C 1020.2 hPa NNW 11.3 km/h 29 km/h 55% 0 mm 644 W/m2
11:40 21.3 °C 11.9 °C 1020.2 hPa NNW 8 km/h 27.4 km/h 55% 0 mm 353 W/m2
11:50 21.4 °C 12.5 °C 1020.5 hPa North 12.9 km/h 27.4 km/h 57% 0 mm 250 W/m2
12:00 21.3 °C 11.9 °C 1020.2 hPa NNW 11.3 km/h 29 km/h 55% 0 mm 685 W/m2
12:10 21.9 °C 12.2 °C 1020.2 hPa North 11.3 km/h 20.9 km/h 54% 0 mm 319 W/m2
12:20 21.7 °C 12 °C 1020.5 hPa North 8 km/h 25.7 km/h 54% 0 mm 907 W/m2
12:30 22 °C 11.9 °C 1020.5 hPa NNW 12.9 km/h 30.6 km/h 53% 0 mm 341 W/m2
12:40 21.6 °C 11.3 °C 1020.5 hPa NNW 9.7 km/h 30.6 km/h 52% 0 mm 358 W/m2
12:50 22.1 °C 11.8 °C 1020.5 hPa NNW 14.5 km/h 33.8 km/h 52% 0 mm 693 W/m2
13:00 22 °C 10.8 °C 1020.5 hPa NNW 16.1 km/h 32.2 km/h 49% 0 mm 282 W/m2
13:10 22.5 °C 11.6 °C 1020.5 hPa NW 14.5 km/h 25.7 km/h 50% 0 mm 936 W/m2
13:20 22.8 °C 11.8 °C 1020.2 hPa NW 11.3 km/h 25.7 km/h 50% 0 mm 928 W/m2
13:40 23.5 °C 11.5 °C 1020.2 hPa NW 12.9 km/h 22.5 km/h 47% 0 mm 908 W/m2
13:50 23.7 °C 10.4 °C 1020.2 hPa WNW 16.1 km/h 29 km/h 43% 0 mm 896 W/m2
14:00 23.7 °C 10.4 °C 1020.2 hPa NW 9.7 km/h 22.5 km/h 43% 0 mm 538 W/m2
14:10 23.4 °C 10.1 °C 1020.2 hPa North 8 km/h 20.9 km/h 43% 0 mm 245 W/m2
14:20 23.4 °C 9.8 °C 1020.2 hPa NW 4.8 km/h 22.5 km/h 42% 0 mm 851 W/m2
14:30 23.8 °C 10.1 °C 1020.2 hPa North 9.7 km/h 20.9 km/h 42% 0 mm 834 W/m2
14:40 24.2 °C 10.5 °C 1020.2 hPa North 11.3 km/h 30.6 km/h 42% 0 mm 815 W/m2
14:50 23.8 °C 9 °C 1020.5 hPa NNW 12.9 km/h 27.4 km/h 39% 0 mm 794 W/m2
15:10 23.9 °C 8.3 °C 1020.5 hPa NNW 9.7 km/h 27.4 km/h 37% 0 mm 751 W/m2
15:20 23.8 °C 8.2 °C 1020.5 hPa North 14.5 km/h 32.2 km/h 37% 0 mm 370 W/m2
15:30 23.8 °C 7.4 °C 1020.9 hPa North 11.3 km/h 32.2 km/h 35% 0 mm 702 W/m2
15:40 23.7 °C 6.9 °C 1020.9 hPa NNW 9.7 km/h 20.9 km/h 34% 0 mm 677 W/m2
15:50 23.7 °C 7.3 °C 1020.9 hPa North 9.7 km/h 25.7 km/h 35% 0 mm 646 W/m2
16:00 23.6 °C 7.2 °C 1020.9 hPa North 8 km/h 22.5 km/h 35% 0 mm 623 W/m2
16:10 23.4 °C 6.6 °C 1020.9 hPa North 9.7 km/h 25.7 km/h 34% 0 mm 595 W/m2
16:20 23.4 °C 7.1 °C 1021.2 hPa North 8 km/h 22.5 km/h 35% 0 mm 566 W/m2
16:30 23.3 °C 6.9 °C 1021.6 hPa North 8 km/h 22.5 km/h 35% 0 mm 537 W/m2
16:40 23.3 °C 6.6 °C 1021.6 hPa NNW 12.9 km/h 27.4 km/h 34% 0 mm 507 W/m2
16:50 22.6 °C 6.4 °C 1021.6 hPa North 9.7 km/h 24.1 km/h 35% 0 mm 198 W/m2
17:00 22 °C 10.8 °C 1021.6 hPa North 8 km/h 19.3 km/h 49% 0 mm 159 W/m2
17:10 21.3 °C 11.9 °C 1022.2 hPa North 4.8 km/h 20.9 km/h 55% 0 mm 149 W/m2
17:20 20.4 °C 11.9 °C 1022.6 hPa NNW 11.3 km/h 25.7 km/h 58% 0 mm 136 W/m2
17:30 19.1 °C 10.4 °C 1023.2 hPa NW 9.7 km/h 27.4 km/h 57% 0 mm 60 W/m2
17:40 18.1 °C 9.7 °C 1023.6 hPa NNW 9.7 km/h 22.5 km/h 58% 0 mm 37 W/m2
17:50 17.6 °C 9.7 °C 1023.6 hPa North 8 km/h 16.1 km/h 60% 0 mm 46 W/m2
18:00 17.2 °C 10.3 °C 1023.6 hPa North 3.2 km/h 16.1 km/h 64% 0 mm 33 W/m2
18:10 16.7 °C 9.8 °C 1023.6 hPa North 1.6 km/h 8 km/h 64% 0 mm 27 W/m2
18:20 16.3 °C 10.2 °C 1023.6 hPa NNW 4.8 km/h 9.7 km/h 67% 0 mm 60 W/m2
18:30 15.9 °C 10.9 °C 1023.9 hPa NW 3.2 km/h 9.7 km/h 72% 0 mm 144 W/m2
18:40 15.8 °C 10.3 °C 1024.3 hPa NW 3.2 km/h 11.3 km/h 70% 0 mm 114 W/m2
18:50 15.8 °C 10.3 °C 1024.3 hPa West 4.8 km/h 9.7 km/h 70% 0 mm 63 W/m2
19:00 15.8 °C 10.1 °C 1024.3 hPa WNW 1.6 km/h 8 km/h 69% 0 mm 68 W/m2
19:10 15.8 °C 10.1 °C 1024.3 hPa NW 3.2 km/h 8 km/h 69% 0 mm 38 W/m2
19:20 15.8 °C 10.1 °C 1024.6 hPa Calm   3.2 km/h 69% 0 mm 31 W/m2
19:30 15.4 °C 9.7 °C 1024.6 hPa Calm   3.2 km/h 69% 0 mm 18 W/m2
19:40 15 °C 9.6 °C 1024.9 hPa Calm   4.8 km/h 70% 0 mm 11 W/m2
19:50 14.5 °C 9.5 °C 1024.9 hPa Calm   3.2 km/h 72% 0 mm 5 W/m2
20:00 14.1 °C 9.3 °C 1025.3 hPa Calm   3.2 km/h 73% 0 mm 0 W/m2
20:10 13.7 °C 9.2 °C 1025.3 hPa NNW 1.6 km/h 3.2 km/h 74% 0 mm 0 W/m2
20:20 13.3 °C 8.9 °C 1025.3 hPa North 3.2 km/h 6.4 km/h 75% 0 mm 0 W/m2
20:30 13 °C 9.1 °C 1025.6 hPa Calm   6.4 km/h 77% 0 mm 0 W/m2
20:40 12.5 °C 8.8 °C 1025.6 hPa West 1.6 km/h 4.8 km/h 78% 0 mm 0 W/m2
20:50 12 °C 8.3 °C 1026 hPa West 3.2 km/h 4.8 km/h 78% 0 mm 0 W/m2
21:00 11.5 °C 8 °C 1026 hPa West 3.2 km/h 9.7 km/h 79% 0 mm 0 W/m2
21:10 11 °C 7.7 °C 1026.3 hPa West 3.2 km/h 6.4 km/h 80% 0 mm 0 W/m2
21:20 10.7 °C 7.6 °C 1026.3 hPa WSW 3.2 km/h 6.4 km/h 81% 0 mm 0 W/m2
21:30 10.4 °C 7.3 °C 1026.6 hPa West 1.6 km/h 6.4 km/h 81% 0 mm 0 W/m2
21:40 10.1 °C 7.3 °C 1026.6 hPa West 3.2 km/h 4.8 km/h 83% 0 mm 0 W/m2
21:50 9.9 °C 7.2 °C 1026.6 hPa WNW 1.6 km/h 4.8 km/h 83% 0 mm 0 W/m2
22:00 9.7 °C 6.9 °C 1026.6 hPa WSW 1.6 km/h 4.8 km/h 83% 0 mm 0 W/m2
22:10 9.5 °C 6.8 °C 1026.6 hPa Calm   3.2 km/h 83% 0 mm 0 W/m2
22:20 9.3 °C 6.6 °C 1027 hPa WNW 1.6 km/h 3.2 km/h 83% 0 mm 0 W/m2
22:30 9.1 °C 6.3 °C 1027 hPa Calm   3.2 km/h 83% 0 mm 0 W/m2
22:40 8.8 °C 6.2 °C 1027 hPa Calm   3.2 km/h 84% 0 mm 0 W/m2
22:50 8.6 °C 6.1 °C 1027.3 hPa WNW 1.6 km/h 3.2 km/h 84% 0 mm 0 W/m2
23:00 8.2 °C 5.7 °C 1027.3 hPa West 3.2 km/h 4.8 km/h 84% 0 mm 0 W/m2
23:10 7.9 °C 5.4 °C 1027.3 hPa West 1.6 km/h 4.8 km/h 84% 0 mm 0 W/m2
23:20 7.6 °C 5.2 °C 1027.3 hPa WSW 1.6 km/h 4.8 km/h 85% 0 mm 0 W/m2
23:30 7.4 °C 5.1 °C 1027.3 hPa West 1.6 km/h 3.2 km/h 85% 0 mm 0 W/m2
23:40 7.2 °C 5 °C 1027.3 hPa NW 1.6 km/h 4.8 km/h 86% 0 mm 0 W/m2
23:50 7.1 °C 4.9 °C 1027.7 hPa Calm   3.2 km/h 86% 0 mm 0 W/m2
Knjazevac, Serbia
Compliments of Weather Underground - 2 mb